Wetterdaten: Donnerstag, 15.11.2007
Datum Zeit Temp. A. Feuchte A. Luftdruck Regen Wind Richtung Richtung Sonnenschein UV Solar Windben
15.11.2007 00:00 1,3 C 89 % 1018,5 hPa 0,0 mm 4,8 km/h (1 Bft) N-NO 22 0 min 0 UV-I 0 W/m 14,5 km/h (3 Bft)
15.11.2007 00:10 1,3 C 89 % 1018,5 hPa 0,0 mm 3,2 km/h (1 Bft) N 360 0 min 0 UV-I 0 W/m 11,3 km/h (2 Bft)
15.11.2007 00:20 1,3 C 88 % 1018,5 hPa 0,0 mm 4,8 km/h (1 Bft) N 360 0 min 0 UV-I 0 W/m 11,3 km/h (2 Bft)
15.11.2007 00:30 1,2 C 88 % 1018,6 hPa 0,0 mm 4,8 km/h (1 Bft) N-NO 22 0 min 0 UV-I 0 W/m 16,1 km/h (3 Bft)
15.11.2007 00:40 1,1 C 88 % 1018,6 hPa 0,0 mm 4,8 km/h (1 Bft) N-NO 22 0 min 0 UV-I 0 W/m 14,5 km/h (3 Bft)
15.11.2007 00:50 1,0 C 88 % 1018,7 hPa 0,0 mm 3,2 km/h (1 Bft) N-NO 22 0 min 0 UV-I 0 W/m 9,7 km/h (2 Bft)
15.11.2007 01:00 0,9 C 88 % 1018,7 hPa 0,0 mm 3,2 km/h (1 Bft) N 360 0 min 0 UV-I 0 W/m 8,0 km/h (2 Bft)
15.11.2007 01:10 0,9 C 88 % 1018,7 hPa 0,0 mm 3,2 km/h (1 Bft) N 360 0 min 0 UV-I 0 W/m 9,7 km/h (2 Bft)
15.11.2007 01:20 0,8 C 88 % 1018,9 hPa 0,0 mm 3,2 km/h (1 Bft) N-NO 22 0 min 0 UV-I 0 W/m 8,0 km/h (2 Bft)
15.11.2007 01:30 0,8 C 88 % 1019,0 hPa 0,0 mm 3,2 km/h (1 Bft) N 360 0 min 0 UV-I 0 W/m 9,7 km/h (2 Bft)
15.11.2007 01:40 0,8 C 88 % 1019,1 hPa 0,0 mm 3,2 km/h (1 Bft) N-NO 22 0 min 0 UV-I 0 W/m 8,0 km/h (2 Bft)
15.11.2007 01:50 0,9 C 88 % 1019,2 hPa 0,0 mm 3,2 km/h (1 Bft) N-NO 22 0 min 0 UV-I 0 W/m 11,3 km/h (2 Bft)
15.11.2007 02:00 0,8 C 88 % 1019,3 hPa 0,0 mm 4,8 km/h (1 Bft) N 360 0 min 0 UV-I 0 W/m 11,3 km/h (2 Bft)
15.11.2007 02:10 0,7 C 88 % 1019,5 hPa 0,0 mm 4,8 km/h (1 Bft) N 360 0 min 0 UV-I 0 W/m 11,3 km/h (2 Bft)
15.11.2007 02:20 0,7 C 88 % 1019,6 hPa 0,0 mm 4,8 km/h (1 Bft) N-NO 22 0 min 0 UV-I 0 W/m 9,7 km/h (2 Bft)
15.11.2007 02:30 0,7 C 88 % 1019,8 hPa 0,0 mm 3,2 km/h (1 Bft) N-NO 22 0 min 0 UV-I 0 W/m 11,3 km/h (2 Bft)
15.11.2007 02:40 0,7 C 88 % 1019,9 hPa 0,0 mm 4,8 km/h (1 Bft) N-NO 22 0 min 0 UV-I 0 W/m 16,1 km/h (3 Bft)
15.11.2007 02:50 0,7 C 88 % 1020,0 hPa 0,0 mm 4,8 km/h (1 Bft) N-NO 22 0 min 0 UV-I 0 W/m 16,1 km/h (3 Bft)
15.11.2007 03:00 0,8 C 88 % 1020,0 hPa 0,0 mm 4,8 km/h (1 Bft) N 360 0 min 0 UV-I 0 W/m 14,5 km/h (3 Bft)
15.11.2007 03:10 0,8 C 88 % 1020,2 hPa 0,0 mm 3,2 km/h (1 Bft) N-NO 22 0 min 0 UV-I 0 W/m 8,0 km/h (2 Bft)
15.11.2007 03:20 0,7 C 87 % 1020,2 hPa 0,0 mm 3,2 km/h (1 Bft) N-NO 22 0 min 0 UV-I 0 W/m 11,3 km/h (2 Bft)
15.11.2007 03:30 0,7 C 87 % 1020,3 hPa 0,0 mm 3,2 km/h (1 Bft) N 360 0 min 0 UV-I 0 W/m 11,3 km/h (2 Bft)
15.11.2007 03:40 0,6 C 87 % 1020,4 hPa 0,0 mm 4,8 km/h (1 Bft) N 360 0 min 0 UV-I 0 W/m 14,5 km/h (3 Bft)
15.11.2007 03:50 0,6 C 87 % 1020,4 hPa 0,0 mm 3,2 km/h (1 Bft) N-NO 22 0 min 0 UV-I 0 W/m 9,7 km/h (2 Bft)
15.11.2007 04:00 0,6 C 87 % 1020,5 hPa 0,0 mm 4,8 km/h (1 Bft) N-NO 22 0 min 0 UV-I 0 W/m 14,5 km/h (3 Bft)
15.11.2007 04:10 0,6 C 87 % 1020,6 hPa 0,0 mm 4,8 km/h (1 Bft) N-NO 22 0 min 0 UV-I 0 W/m 11,3 km/h (2 Bft)
15.11.2007 04:20 0,6 C 87 % 1020,5 hPa 0,0 mm 3,2 km/h (1 Bft) N-NO 22 0 min 0 UV-I 0 W/m 11,3 km/h (2 Bft)
15.11.2007 04:30 0,6 C 87 % 1020,7 hPa 0,0 mm 3,2 km/h (1 Bft) N-NO 22 0 min 0 UV-I 0 W/m 9,7 km/h (2 Bft)
15.11.2007 04:40 0,6 C 87 % 1020,8 hPa 0,0 mm 4,8 km/h (1 Bft) N-NO 22 0 min 0 UV-I 0 W/m 16,1 km/h (3 Bft)
15.11.2007 04:50 0,6 C 87 % 1020,9 hPa 0,0 mm 3,2 km/h (1 Bft) N-NO 22 0 min 0 UV-I 0 W/m 14,5 km/h (3 Bft)
15.11.2007 05:00 0,7 C 87 % 1020,9 hPa 0,0 mm 3,2 km/h (1 Bft) N-NO 22 0 min 0 UV-I 0 W/m 9,7 km/h (2 Bft)
15.11.2007 05:10 0,7 C 87 % 1021,0 hPa 0,0 mm 4,8 km/h (1 Bft) N 360 0 min 0 UV-I 0 W/m 16,1 km/h (3 Bft)
15.11.2007 05:20 0,7 C 87 % 1021,2 hPa 0,0 mm 3,2 km/h (1 Bft) N-NO 22 0 min 0 UV-I 0 W/m 8,0 km/h (2 Bft)
15.11.2007 05:30 0,7 C 87 % 1021,3 hPa 0,0 mm 3,2 km/h (1 Bft) N-NO 22 0 min 0 UV-I 0 W/m 8,0 km/h (2 Bft)
15.11.2007 05:40 0,7 C 88 % 1021,3 hPa 0,0 mm 3,2 km/h (1 Bft) N 360 0 min 0 UV-I 0 W/m 6,4 km/h (2 Bft)
15.11.2007 05:50 0,7 C 88 % 1021,4 hPa 0,0 mm 1,6 km/h (1 Bft) N-NW 337 0 min 0 UV-I 0 W/m 9,7 km/h (2 Bft)
15.11.2007 06:00 0,7 C 88 % 1021,5 hPa 0,0 mm 1,6 km/h (1 Bft) NW 315 0 min 0 UV-I 0 W/m 6,4 km/h (2 Bft)
15.11.2007 06:10 0,7 C 88 % 1021,6 hPa 0,0 mm 1,6 km/h (1 Bft) N-NW 337 0 min 0 UV-I 0 W/m 6,4 km/h (2 Bft)
15.11.2007 06:20 0,7 C 88 % 1021,7 hPa 0,0 mm 1,6 km/h (1 Bft) N 360 0 min 0 UV-I 0 W/m 6,4 km/h (2 Bft)
15.11.2007 06:30 0,7 C 88 % 1021,8 hPa 0,0 mm 1,6 km/h (1 Bft) W 270 0 min 0 UV-I 0 W/m 8,0 km/h (2 Bft)
15.11.2007 06:40 0,7 C 88 % 1021,9 hPa 0,0 mm 1,6 km/h (1 Bft) N-NO 22 0 min 0 UV-I 0 W/m 6,4 km/h (2 Bft)
15.11.2007 06:50 0,7 C 88 % 1022,0 hPa 0,0 mm 1,6 km/h (1 Bft) N 360 0 min 0 UV-I 0 W/m 6,4 km/h (2 Bft)
15.11.2007 07:00 0,7 C 88 % 1022,2 hPa 0,0 mm 1,6 km/h (1 Bft) N 360 0 min 0 UV-I 0 W/m 8,0 km/h (2 Bft)
15.11.2007 07:10 0,7 C 88 % 1022,5 hPa 0,0 mm 1,6 km/h (1 Bft) W-NW 292 0 min 0 UV-I 0 W/m 4,8 km/h (1 Bft)
15.11.2007 07:20 0,7 C 88 % 1022,5 hPa 0,0 mm 1,6 km/h (1 Bft) NW 315 0 min 0 UV-I 0 W/m 4,8 km/h (1 Bft)
15.11.2007 07:30 0,7 C 88 % 1022,6 hPa 0,0 mm 1,6 km/h (1 Bft) NW 315 0 min 0 UV-I 0 W/m 6,4 km/h (2 Bft)
15.11.2007 07:40 0,7 C 88 % 1022,6 hPa 0,0 mm 1,6 km/h (1 Bft) N-NO 22 0 min 0 UV-I 0 W/m 6,4 km/h (2 Bft)
15.11.2007 07:50 0,7 C 88 % 1022,8 hPa 0,0 mm 1,6 km/h (1 Bft) N-NO 22 0 min 0 UV-I 0 W/m 8,0 km/h (2 Bft)
15.11.2007 08:00 0,7 C 88 % 1022,9 hPa 0,0 mm 1,6 km/h (1 Bft) N-NO 22 0 min 0 UV-I 0 W/m 4,8 km/h (1 Bft)
15.11.2007 08:10 0,7 C 88 % 1023,2 hPa 0,0 mm 3,2 km/h (1 Bft) N 360 0 min 0 UV-I 7 W/m 9,7 km/h (2 Bft)
15.11.2007 08:20 0,7 C 88 % 1023,3 hPa 0,0 mm 3,2 km/h (1 Bft) N 360 0 min 0 UV-I 7 W/m 9,7 km/h (2 Bft)
15.11.2007 08:30 0,7 C 88 % 1023,3 hPa 0,0 mm 3,2 km/h (1 Bft) N 360 0 min 0 UV-I 11 W/m 6,4 km/h (2 Bft)
15.11.2007 08:40 0,8 C 88 % 1023,4 hPa 0,0 mm 1,6 km/h (1 Bft) N 360 0 min 0 UV-I 18 W/m 6,4 km/h (2 Bft)
15.11.2007 08:50 0,8 C 88 % 1023,6 hPa 0,0 mm 1,6 km/h (1 Bft) N 360 0 min 0 UV-I 19 W/m 6,4 km/h (2 Bft)
15.11.2007 09:00 0,8 C 88 % 1023,7 hPa 0,0 mm 1,6 km/h (1 Bft) N-NO 22 0 min 0 UV-I 28 W/m 4,8 km/h (1 Bft)
15.11.2007 09:10 0,8 C 88 % 1023,9 hPa 0,0 mm 3,2 km/h (1 Bft) N-NO 22 0 min 0 UV-I 30 W/m 8,0 km/h (2 Bft)
15.11.2007 09:20 0,9 C 88 % 1024,0 hPa 0,0 mm 1,6 km/h (1 Bft) N 360 0 min 0 UV-I 37 W/m 8,0 km/h (2 Bft)
15.11.2007 09:30 0,9 C 88 % 1024,0 hPa 0,0 mm 3,2 km/h (1 Bft) N 360 0 min 0 UV-I 53 W/m 8,0 km/h (2 Bft)
15.11.2007 09:40 0,9 C 88 % 1024,0 hPa 0,0 mm 1,6 km/h (1 Bft) N 360 0 min 0 UV-I 54 W/m 6,4 km/h (2 Bft)
15.11.2007 09:50 1,1 C 88 % 1024,1 hPa 0,0 mm 1,6 km/h (1 Bft) N 360 0 min 0 UV-I 74 W/m 6,4 km/h (2 Bft)
15.11.2007 10:00 1,1 C 88 % 1024,1 hPa 0,0 mm 1,6 km/h (1 Bft) N 360 0 min 0 UV-I 76 W/m 4,8 km/h (1 Bft)
15.11.2007 10:10 1,3 C 88 % 1024,2 hPa 0,0 mm 1,6 km/h (1 Bft) N-NW 337 0 min 0 UV-I 93 W/m 6,4 km/h (2 Bft)
15.11.2007 10:20 1,3 C 87 % 1024,2 hPa 0,0 mm 1,6 km/h (1 Bft) N-NW 337 0 min 0 UV-I 84 W/m 4,8 km/h (1 Bft)
15.11.2007 10:30 1,3 C 87 % 1024,2 hPa 0,0 mm 1,6 km/h (1 Bft) N 360 0 min 0 UV-I 88 W/m 4,8 km/h (1 Bft)
15.11.2007 10:40 1,4 C 87 % 1024,3 hPa 0,0 mm 1,6 km/h (1 Bft) N-NW 337 0 min 0 UV-I 95 W/m 4,8 km/h (1 Bft)
15.11.2007 10:50 1,6 C 87 % 1024,3 hPa 0,0 mm 1,6 km/h (1 Bft) N-NW 337 0 min 0 UV-I 125 W/m 4,8 km/h (1 Bft)
15.11.2007 11:00 1,8 C 86 % 1024,3 hPa 0,0 mm 1,6 km/h (1 Bft) N-NW 337 0 min 0 UV-I 128 W/m 6,4 km/h (2 Bft)
15.11.2007 11:10 1,9 C 85 % 1024,4 hPa 0,0 mm 1,6 km/h (1 Bft) N 360 0 min 0 UV-I 127 W/m 4,8 km/h (1 Bft)
15.11.2007 11:20 2,1 C 84 % 1024,4 hPa 0,0 mm 1,6 km/h (1 Bft) N 360 0 min 1 UV-I 155 W/m 4,8 km/h (1 Bft)
15.11.2007 11:30 2,2 C 84 % 1024,5 hPa 0,0 mm 1,6 km/h (1 Bft) W 270 0 min 1 UV-I 153 W/m 6,4 km/h (2 Bft)
15.11.2007 11:40 2,3 C 84 % 1024,5 hPa 0,0 mm 0,0 km/h (0 Bft) W 270 0 min 0 UV-I 130 W/m 3,2 km/h (1 Bft)
15.11.2007 11:50 2,5 C 84 % 1024,5 hPa 0,0 mm 1,6 km/h (1 Bft) W 270 0 min 0 UV-I 104 W/m 3,2 km/h (1 Bft)
15.11.2007 12:00 2,6 C 82 % 1024,4 hPa 0,0 mm 1,6 km/h (1 Bft) W 270 0 min 1 UV-I 144 W/m 4,8 km/h (1 Bft)
15.11.2007 12:10 2,6 C 83 % 1024,2 hPa 0,0 mm 3,2 km/h (1 Bft) W 270 10 min 1 UV-I 339 W/m 6,4 km/h (2 Bft)
15.11.2007 12:20 2,8 C 82 % 1024,2 hPa 0,0 mm 3,2 km/h (1 Bft) W 270 10 min 1 UV-I 432 W/m 6,4 km/h (2 Bft)
15.11.2007 12:30 3,0 C 82 % 1024,3 hPa 0,0 mm 3,2 km/h (1 Bft) W-NW 292 0 min 1 UV-I 137 W/m 6,4 km/h (2 Bft)
15.11.2007 12:40 2,8 C 81 % 1024,3 hPa 0,0 mm 3,2 km/h (1 Bft) W 270 10 min 1 UV-I 190 W/m 6,4 km/h (2 Bft)
15.11.2007 12:50 2,9 C 81 % 1024,4 hPa 0,0 mm 3,2 km/h (1 Bft) W 270 10 min 1 UV-I 220 W/m 8,0 km/h (2 Bft)
15.11.2007 13:00 3,0 C 81 % 1024,2 hPa 0,0 mm 3,2 km/h (1 Bft) W 270 0 min 0 UV-I 107 W/m 6,4 km/h (2 Bft)
15.11.2007 13:10 3,1 C 80 % 1024,2 hPa 0,0 mm 3,2 km/h (1 Bft) W 270 0 min 0 UV-I 76 W/m 8,0 km/h (2 Bft)
15.11.2007 13:20 3,1 C 81 % 1024,2 hPa 0,0 mm 3,2 km/h (1 Bft) W-SW 247 0 min 0 UV-I 63 W/m 6,4 km/h (2 Bft)
15.11.2007 13:30 3,1 C 81 % 1024,2 hPa 0,0 mm 3,2 km/h (1 Bft) W-SW 247 0 min 0 UV-I 79 W/m 9,7 km/h (2 Bft)
15.11.2007 13:40 3,1 C 82 % 1024,2 hPa 0,0 mm 4,8 km/h (1 Bft) W-SW 247 0 min 0 UV-I 65 W/m 9,7 km/h (2 Bft)
15.11.2007 13:50 3,0 C 82 % 1024,4 hPa 0,0 mm 3,2 km/h (1 Bft) W 270 0 min 0 UV-I 40 W/m 9,7 km/h (2 Bft)
15.11.2007 14:00 3,0 C 83 % 1024,3 hPa 0,0 mm 3,2 km/h (1 Bft) W 270 0 min 0 UV-I 74 W/m 6,4 km/h (2 Bft)
15.11.2007 14:10 3,1 C 83 % 1024,3 hPa 0,0 mm 1,6 km/h (1 Bft) N 360 0 min 0 UV-I 93 W/m 8,0 km/h (2 Bft)
15.11.2007 14:20 3,1 C 82 % 1024,3 hPa 0,0 mm 3,2 km/h (1 Bft) N 360 0 min 0 UV-I 63 W/m 6,4 km/h (2 Bft)
15.11.2007 14:30 3,1 C 82 % 1024,2 hPa 0,0 mm 1,6 km/h (1 Bft) N 360 0 min 0 UV-I 118 W/m 4,8 km/h (1 Bft)
15.11.2007 14:40 3,1 C 82 % 1024,2 hPa 0,0 mm 1,6 km/h (1 Bft) N 360 0 min 0 UV-I 114 W/m 4,8 km/h (1 Bft)
15.11.2007 14:50 3,1 C 81 % 1024,3 hPa 0,0 mm 1,6 km/h (1 Bft) N-NO 22 0 min 0 UV-I 51 W/m 9,7 km/h (2 Bft)
15.11.2007 15:00 3,1 C 81 % 1024,4 hPa 0,0 mm 3,2 km/h (1 Bft) N 360 0 min 0 UV-I 53 W/m 11,3 km/h (2 Bft)
15.11.2007 15:10 3,1 C 81 % 1024,4 hPa 0,0 mm 1,6 km/h (1 Bft) N-NW 337 0 min 0 UV-I 51 W/m 8,0 km/h (2 Bft)
15.11.2007 15:20 3,1 C 80 % 1024,4 hPa 0,0 mm 3,2 km/h (1 Bft) N-NW 337 0 min 0 UV-I 74 W/m 14,5 km/h (3 Bft)
15.11.2007 15:30 3,0 C 80 % 1024,5 hPa 0,0 mm 3,2 km/h (1 Bft) N 360 10 min 0 UV-I 83 W/m 11,3 km/h (2 Bft)
15.11.2007 15:40 3,1 C 79 % 1024,6 hPa 0,0 mm 1,6 km/h (1 Bft) N-NW 337 0 min 0 UV-I 53 W/m 8,0 km/h (2 Bft)
15.11.2007 15:50 3,1 C 79 % 1024,7 hPa 0,0 mm 1,6 km/h (1 Bft) NW 315 0 min 0 UV-I 35 W/m 6,4 km/h (2 Bft)
15.11.2007 16:00 3,0 C 80 % 1024,7 hPa 0,0 mm 3,2 km/h (1 Bft) W-NW 292 0 min 0 UV-I 12 W/m 8,0 km/h (2 Bft)
15.11.2007 16:10 2,9 C 80 % 1024,8 hPa 0,0 mm 3,2 km/h (1 Bft) W-NW 292 0 min 0 UV-I 14 W/m 11,3 km/h (2 Bft)
15.11.2007 16:20 2,8 C 80 % 1024,7 hPa 0,0 mm 1,6 km/h (1 Bft) W-NW 292 0 min 0 UV-I 12 W/m 6,4 km/h (2 Bft)
15.11.2007 16:30 2,8 C 79 % 1024,8 hPa 0,0 mm 1,6 km/h (1 Bft) NW 315 0 min 0 UV-I 5 W/m 6,4 km/h (2 Bft)
15.11.2007 16:40 2,7 C 80 % 1024,9 hPa 0,0 mm 1,6 km/h (1 Bft) N-NO 22 0 min 0 UV-I 0 W/m 6,4 km/h (2 Bft)
15.11.2007 16:50 2,7 C 80 % 1025,0 hPa 0,0 mm 1,6 km/h (1 Bft) NW 315 0 min 0 UV-I 0 W/m 6,4 km/h (2 Bft)
15.11.2007 17:00 2,7 C 80 % 1025,0 hPa 0,0 mm 3,2 km/h (1 Bft) NW 315 0 min 0 UV-I 0 W/m 11,3 km/h (2 Bft)
15.11.2007 17:10 2,6 C 81 % 1025,0 hPa 0,0 mm 3,2 km/h (1 Bft) N 360 0 min 0 UV-I 0 W/m 9,7 km/h (2 Bft)
15.11.2007 17:20 2,6 C 81 % 1025,1 hPa 0,0 mm 3,2 km/h (1 Bft) N-NO 22 0 min 0 UV-I 0 W/m 8,0 km/h (2 Bft)
15.11.2007 17:30 2,5 C 81 % 1025,1 hPa 0,0 mm 1,6 km/h (1 Bft) N 360 0 min 0 UV-I 0 W/m 4,8 km/h (1 Bft)
15.11.2007 17:40 2,4 C 81 % 1025,2 hPa 0,0 mm 3,2 km/h (1 Bft) N-NO 22 0 min 0 UV-I 0 W/m 9,7 km/h (2 Bft)
15.11.2007 17:50 2,3 C 81 % 1025,2 hPa 0,0 mm 3,2 km/h (1 Bft) N-NO 22 0 min 0 UV-I 0 W/m 8,0 km/h (2 Bft)
15.11.2007 18:00 2,2 C 82 % 1025,4 hPa 0,0 mm 1,6 km/h (1 Bft) N-NO 22 0 min 0 UV-I 0 W/m 8,0 km/h (2 Bft)
15.11.2007 18:10 2,2 C 82 % 1025,5 hPa 0,0 mm 3,2 km/h (1 Bft) N 360 0 min 0 UV-I 0 W/m 6,4 km/h (2 Bft)
15.11.2007 18:20 2,1 C 82 % 1025,6 hPa 0,0 mm 3,2 km/h (1 Bft) N-NO 22 0 min 0 UV-I 0 W/m 9,7 km/h (2 Bft)
15.11.2007 18:30 2,0 C 83 % 1025,5 hPa 0,0 mm 1,6 km/h (1 Bft) N 360 0 min 0 UV-I 0 W/m 8,0 km/h (2 Bft)
15.11.2007 18:40 2,0 C 83 % 1025,7 hPa 0,0 mm 1,6 km/h (1 Bft) N-NO 22 0 min 0 UV-I 0 W/m 8,0 km/h (2 Bft)
15.11.2007 18:50 2,0 C 83 % 1025,8 hPa 0,0 mm 1,6 km/h (1 Bft) N 360 0 min 0 UV-I 0 W/m 6,4 km/h (2 Bft)
15.11.2007 19:00 2,0 C 83 % 1025,8 hPa 0,0 mm 1,6 km/h (1 Bft) N-NO 22 0 min 0 UV-I 0 W/m 8,0 km/h (2 Bft)
15.11.2007 19:10 2,0 C 84 % 1025,9 hPa 0,0 mm 1,6 km/h (1 Bft) N 360 0 min 0 UV-I 0 W/m 6,4 km/h (2 Bft)
15.11.2007 19:20 2,0 C 83 % 1025,8 hPa 0,0 mm 1,6 km/h (1 Bft) NW 315 0 min 0 UV-I 0 W/m 4,8 km/h (1 Bft)
15.11.2007 19:30 2,0 C 83 % 1025,9 hPa 0,0 mm 1,6 km/h (1 Bft) N 360 0 min 0 UV-I 0 W/m 6,4 km/h (2 Bft)
15.11.2007 19:40 2,0 C 83 % 1025,9 hPa 0,0 mm 1,6 km/h (1 Bft) N 360 0 min 0 UV-I 0 W/m 6,4 km/h (2 Bft)
15.11.2007 19:50 2,0 C 83 % 1025,9 hPa 0,0 mm 1,6 km/h (1 Bft) NW 315 0 min 0 UV-I 0 W/m 4,8 km/h (1 Bft)
15.11.2007 20:00 1,9 C 83 % 1025,9 hPa 0,0 mm 1,6 km/h (1 Bft) NW 315 0 min 0 UV-I 0 W/m 6,4 km/h (2 Bft)
15.11.2007 20:10 1,9 C 83 % 1025,8 hPa 0,0 mm 1,6 km/h (1 Bft) W-NW 292 0 min 0 UV-I 0 W/m 3,2 km/h (1 Bft)
15.11.2007 20:20 1,9 C 83 % 1025,8 hPa 0,0 mm 0,0 km/h (0 Bft) W-NW 292 0 min 0 UV-I 0 W/m 1,6 km/h (1 Bft)
15.11.2007 20:30 1,9 C 83 % 1025,9 hPa 0,0 mm 0,0 km/h (0 Bft) W-NW 292 0 min 0 UV-I 0 W/m 3,2 km/h (1 Bft)
15.11.2007 20:40 1,8 C 83 % 1026,0 hPa 0,0 mm 1,6 km/h (1 Bft) W-NW 292 0 min 0 UV-I 0 W/m 4,8 km/h (1 Bft)
15.11.2007 20:50 1,8 C 83 % 1026,0 hPa 0,0 mm 1,6 km/h (1 Bft) W-NW 292 0 min 0 UV-I 0 W/m 4,8 km/h (1 Bft)
15.11.2007 21:00 1,8 C 84 % 1026,1 hPa 0,0 mm 1,6 km/h (1 Bft) W-NW 292 0 min 0 UV-I 0 W/m 4,8 km/h (1 Bft)
15.11.2007 21:10 1,8 C 84 % 1026,2 hPa 0,0 mm 1,6 km/h (1 Bft) W-NW 292 0 min 0 UV-I 0 W/m 6,4 km/h (2 Bft)
15.11.2007 21:20 1,8 C 84 % 1026,1 hPa 0,0 mm 1,6 km/h (1 Bft) W-NW 292 0 min 0 UV-I 0 W/m 4,8 km/h (1 Bft)
15.11.2007 21:30 1,7 C 84 % 1026,3 hPa 0,0 mm 1,6 km/h (1 Bft) W-NW 292 0 min 0 UV-I 0 W/m 3,2 km/h (1 Bft)
15.11.2007 21:40 1,7 C 84 % 1026,4 hPa 0,0 mm 1,6 km/h (1 Bft) W-NW 292 0 min 0 UV-I 0 W/m 4,8 km/h (1 Bft)
15.11.2007 21:50 1,7 C 84 % 1026,5 hPa 0,0 mm 1,6 km/h (1 Bft) W-NW 292 0 min 0 UV-I 0 W/m 4,8 km/h (1 Bft)
15.11.2007 22:00 1,7 C 84 % 1026,5 hPa 0,0 mm 1,6 km/h (1 Bft) W-NW 292 0 min 0 UV-I 0 W/m 6,4 km/h (2 Bft)
15.11.2007 22:10 1,7 C 84 % 1026,5 hPa 0,0 mm 1,6 km/h (1 Bft) W-NW 292 0 min 0 UV-I 0 W/m 3,2 km/h (1 Bft)
15.11.2007 22:20 1,7 C 84 % 1026,5 hPa 0,0 mm 1,6 km/h (1 Bft) W-NW 292 0 min 0 UV-I 0 W/m 4,8 km/h (1 Bft)
15.11.2007 22:30 1,7 C 84 % 1026,7 hPa 0,0 mm 1,6 km/h (1 Bft) W-NW 292 0 min 0 UV-I 0 W/m 4,8 km/h (1 Bft)
15.11.2007 22:40 1,6 C 84 % 1026,5 hPa 0,0 mm 1,6 km/h (1 Bft) W-NW 292 0 min 0 UV-I 0 W/m 3,2 km/h (1 Bft)
15.11.2007 22:50 1,6 C 84 % 1026,4 hPa 0,0 mm 1,6 km/h (1 Bft) W-NW 292 0 min 0 UV-I 0 W/m 3,2 km/h (1 Bft)
15.11.2007 23:00 1,6 C 85 % 1026,4 hPa 0,0 mm 0,0 km/h (0 Bft) W-NW 292 0 min 0 UV-I 0 W/m 3,2 km/h (1 Bft)
15.11.2007 23:10 1,6 C 85 % 1026,3 hPa 0,0 mm 0,0 km/h (0 Bft) W-NW 292 0 min 0 UV-I 0 W/m 3,2 km/h (1 Bft)
15.11.2007 23:20 1,6 C 85 % 1026,3 hPa 0,0 mm 1,6 km/h (1 Bft) W-NW 292 0 min 0 UV-I 0 W/m 4,8 km/h (1 Bft)
15.11.2007 23:30 1,5 C 85 % 1026,2 hPa 0,0 mm 1,6 km/h (1 Bft) W-SW 247 0 min 0 UV-I 0 W/m 4,8 km/h (1 Bft)
15.11.2007 23:40 1,4 C 86 % 1026,0 hPa 0,0 mm 3,2 km/h (1 Bft) SW 225 0 min 0 UV-I 0 W/m 8,0 km/h (2 Bft)
15.11.2007 23:50 1,3 C 86 % 1026,1 hPa 0,0 mm 1,6 km/h (1 Bft) SW 225 0 min 0 UV-I 0 W/m 8,0 km/h (2 Bft)
_ Min-Zeit 03:40 15:40 00:00 - 11:40 - - - - - 20:20
Minimum _ 0,6 C 79 % 1018,5 hPa - 0,0 km/h (0 Bft) - - - - - 1,6 km/h (1 Bft)
_ Max-Zeit 12:20 00:00 22:30 00:00 00:00 - - 12:10 12:10 12:20 00:30
Maximum _ 3,1 C 89 % 1026,7 hPa 0,0 mm 4,8 km/h
N-NO (1 Bft)
- - 10 min 1 UV-I 432 W/m 16,1 km/h
N-NO (3 Bft)
Durchschnitt _ 1,6 C 85 % 1023,5 hPa #0,0 mm 2,5 km/h (1 Bft) N - #50 min. 1 UV-I 88 W/m 7,7 km/h (2 Bft)